createdAt,value
2016-11-28T07:26:47.508Z,136
2016-11-28T07:28:01.340Z,900
2016-11-28T07:29:16.512Z,948
2016-11-28T07:30:33.099Z,996
2016-11-28T07:31:48.743Z,1048
2016-11-28T07:33:02.368Z,1100
2016-11-28T07:34:15.545Z,1152
2016-11-28T07:35:31.483Z,1208
2016-11-28T07:36:47.783Z,1272
2016-11-28T07:38:02.132Z,1332
2016-11-28T07:39:17.350Z,1404
2016-11-28T07:40:32.570Z,1484
2016-11-28T07:41:48.647Z,1580
2016-11-28T07:43:04.285Z,1708
2016-11-28T07:44:20.991Z,1924
2016-11-28T07:45:34.166Z,2320
2016-11-28T07:46:47.649Z,2796
2016-11-28T07:47:58.403Z,3148
2016-11-28T07:49:13.941Z,3352
2016-11-28T07:50:30.561Z,3512
2016-11-28T07:51:45.027Z,3676
2016-11-28T07:52:58.075Z,3888
2016-11-28T07:54:11.808Z,4012
2016-11-28T07:55:27.017Z,4092
2016-11-28T07:56:42.052Z,4220
2016-11-28T07:57:58.489Z,4412
2016-11-28T07:59:12.217Z,4708
2016-11-28T08:00:28.795Z,4860
2016-11-28T08:01:42.268Z,4932
2016-11-28T08:02:57.431Z,5092
2016-11-28T08:04:14.560Z,5168
2016-11-28T08:05:28.431Z,5332
2016-11-28T08:06:44.574Z,5436
2016-11-28T08:07:58.043Z,5568
2016-11-28T08:09:12.873Z,5672
2016-11-28T08:10:25.256Z,5828
2016-11-28T08:11:42.283Z,6008
2016-11-28T08:12:59.045Z,6128
2016-11-28T08:14:15.389Z,6264
2016-11-28T08:15:30.478Z,6384
2016-11-28T08:16:47.057Z,6504
2016-11-28T08:18:03.776Z,6624
2016-11-28T08:19:16.947Z,6736
2016-11-28T08:20:31.958Z,6856
2016-11-28T08:21:48.023Z,6968
2016-11-28T08:23:03.984Z,7064
2016-11-28T08:24:20.003Z,7192
2016-11-28T08:25:35.830Z,7332
2016-11-28T08:26:50.659Z,7436
2016-11-28T08:28:07.208Z,7560
2016-11-28T08:29:20.019Z,7656
2016-11-28T08:30:35.066Z,7752
2016-11-28T08:31:49.943Z,7864
2016-11-28T08:33:02.970Z,7976
2016-11-28T08:34:18.613Z,8104
2016-11-28T08:35:34.103Z,8208
2016-11-28T08:36:49.036Z,8320
2016-11-28T08:38:05.337Z,8400
2016-11-28T08:39:20.259Z,8564
2016-11-28T08:40:36.162Z,8696
2016-11-28T08:41:52.879Z,8944
2016-11-28T08:43:07.637Z,9596
2016-11-28T08:44:22.895Z,10472
2016-11-28T08:45:37.112Z,10860
2016-11-28T08:46:51.772Z,10892
2016-11-28T08:48:08.524Z,10880
2016-11-28T08:49:21.410Z,10964
2016-11-28T08:50:36.480Z,10884
2016-11-28T08:51:53.200Z,10888
2016-11-28T08:53:06.676Z,11064
2016-11-28T08:54:24.084Z,11220
2016-11-28T08:55:37.586Z,11380
2016-11-28T08:56:54.579Z,11480
2016-11-28T08:58:11.424Z,11552
2016-11-28T08:59:28.155Z,11612
2016-11-28T09:00:43.612Z,11736
2016-11-28T09:01:59.792Z,11884
2016-11-28T09:03:14.272Z,11928
2016-11-28T09:04:30.113Z,12092
2016-11-28T09:05:45.758Z,12188
2016-11-28T09:07:02.145Z,12228
2016-11-28T09:08:18.454Z,12248
2016-11-28T09:09:32.823Z,12112
2016-11-28T09:10:45.576Z,12076
2016-11-28T09:12:00.764Z,12132
2016-11-28T09:13:17.245Z,12480
2016-11-28T09:14:29.090Z,12620
2016-11-28T09:15:42.902Z,12712
2016-11-28T09:16:59.211Z,12844
2016-11-28T09:18:14.366Z,13036
2016-11-28T09:19:29.949Z,13408
2016-11-28T09:20:44.904Z,13516
2016-11-28T09:22:01.616Z,13780
2016-11-28T09:23:17.116Z,13944
2016-11-28T09:24:33.578Z,14028
2016-11-28T09:25:49.516Z,14104
2016-11-28T09:27:06.488Z,14028
2016-11-28T09:28:22.811Z,14212
2016-11-28T09:29:37.861Z,14344
2016-11-28T09:30:54.245Z,14912
2016-11-28T09:32:10.576Z,15136
2016-11-28T09:33:22.632Z,14944
2016-11-28T09:34:38.768Z,15104
2016-11-28T09:35:55.200Z,15456
2016-11-28T09:37:11.517Z,15872
2016-11-28T09:38:26.870Z,15904
2016-11-28T09:39:41.851Z,16128
2016-11-28T09:40:55.310Z,16640
2016-11-28T09:42:09.265Z,17120
2016-11-28T09:43:24.017Z,18080
2016-11-28T09:44:40.082Z,19616
2016-11-28T09:45:56.392Z,19104
2016-11-28T09:47:13.195Z,19136
2016-11-28T09:48:27.269Z,19360
2016-11-28T09:49:44.186Z,18400
2016-11-28T09:51:00.641Z,19104
2016-11-28T09:52:16.447Z,20448
2016-11-28T09:53:33.010Z,19936
2016-11-28T09:54:46.197Z,19488
2016-11-28T09:56:01.335Z,20224
2016-11-28T09:57:16.353Z,16512
2016-11-28T09:58:32.354Z,12960
2016-11-28T09:59:45.723Z,12616
2016-11-28T10:01:02.334Z,13120
2016-11-28T10:02:16.767Z,13616
2016-11-28T10:03:31.350Z,13468
2016-11-28T10:04:47.770Z,15488
2016-11-28T10:06:01.413Z,17344
2016-11-28T10:07:16.236Z,16256
2016-11-28T10:08:31.005Z,16576
2016-11-28T10:09:47.793Z,19904
2016-11-28T10:11:03.932Z,25568
2016-11-28T10:12:18.985Z,30592
2016-11-28T10:13:35.297Z,32832
2016-11-28T10:14:51.213Z,33088
2016-11-28T10:16:05.916Z,32672
2016-11-28T10:17:21.968Z,31872
2016-11-28T10:18:37.960Z,32672
2016-11-28T10:19:54.058Z,32864
2016-11-28T10:21:08.349Z,32320
2016-11-28T10:22:23.502Z,29664
2016-11-28T10:23:39.407Z,28832
2016-11-28T10:24:53.936Z,28960
2016-11-28T10:26:09.588Z,33728
2016-11-28T10:27:24.283Z,29120
2016-11-28T10:28:40.626Z,26944
2016-11-28T10:29:56.725Z,26944
2016-11-28T10:31:12.469Z,26304
2016-11-28T10:32:28.207Z,25088
2016-11-28T10:33:44.912Z,25024
2016-11-28T10:34:58.492Z,26336
2016-11-28T10:36:14.832Z,21376
2016-11-28T10:37:29.271Z,6932
2016-11-28T10:38:45.781Z,4080
2016-11-28T10:40:01.342Z,3580
2016-11-28T10:41:18.071Z,3228
2016-11-28T10:42:31.669Z,3288
2016-11-28T10:43:44.352Z,3404
2016-11-28T10:45:03.483Z,3324
2016-11-28T10:46:19.537Z,9844
2016-11-28T10:47:32.656Z,21120
2016-11-28T10:48:49.825Z,6892
2016-11-28T10:50:05.474Z,3656
2016-11-28T10:51:19.762Z,2968
2016-11-28T10:52:36.212Z,2912
2016-11-28T10:54:05.040Z,2908
2016-11-28T10:55:20.539Z,2888
2016-11-28T10:56:35.399Z,2888
2016-11-28T10:57:52.154Z,2888
2016-11-28T10:59:05.927Z,2884
2016-11-28T11:00:21.937Z,2872
2016-11-28T11:01:37.740Z,2876
2016-11-28T11:03:08.356Z,2884
2016-11-28T11:04:23.039Z,2876
2016-11-28T11:05:37.901Z,2884
2016-11-28T11:06:53.788Z,2884
2016-11-28T11:08:09.124Z,2892
2016-11-28T11:09:25.807Z,2904
2016-11-28T11:10:40.987Z,2896
2016-11-28T11:11:56.028Z,2896
2016-11-28T11:13:09.767Z,2892
2016-11-28T11:14:25.810Z,2896
2016-11-28T11:15:39.619Z,2892
2016-11-28T11:16:55.348Z,2888
2016-11-28T11:18:11.829Z,2860
2016-11-28T11:19:27.514Z,2840
2016-11-28T11:20:42.591Z,2832
2016-11-28T11:21:56.909Z,2836
2016-11-28T11:23:13.497Z,2840
2016-11-28T11:24:28.558Z,2844
2016-11-28T11:25:41.688Z,2840
2016-11-28T11:26:54.601Z,2836
2016-11-28T11:28:09.253Z,2836
2016-11-28T11:29:25.557Z,2840
2016-11-28T11:30:39.032Z,2816
2016-11-28T11:31:54.136Z,2800
2016-11-28T11:33:07.436Z,2792
2016-11-28T11:34:23.722Z,2776
2016-11-28T11:35:40.441Z,2756
2016-11-28T11:36:54.999Z,2748
2016-11-28T11:38:11.457Z,2728
2016-11-28T11:39:27.092Z,2728
2016-11-28T11:40:44.066Z,2720
2016-11-28T11:41:58.584Z,2716
2016-11-28T11:43:14.109Z,2712
2016-11-28T11:44:29.126Z,2696
2016-11-28T11:45:45.815Z,2684
2016-11-28T11:47:00.884Z,2676
2016-11-28T11:48:15.336Z,2680
2016-11-28T11:49:32.059Z,2652
2016-11-28T11:50:46.333Z,2648
2016-11-28T11:51:59.322Z,2644
2016-11-28T11:53:14.802Z,2640
2016-11-28T11:54:30.332Z,2636
2016-11-28T11:55:45.310Z,2632
2016-11-28T11:57:01.628Z,2620
2016-11-28T11:58:17.530Z,2612
2016-11-28T11:59:29.094Z,2616
2016-11-28T12:00:45.426Z,2612
2016-11-28T12:01:59.860Z,2604
2016-11-28T12:03:14.336Z,2600
2016-11-28T12:04:29.453Z,2584
2016-11-28T12:05:45.491Z,2592
2016-11-28T12:06:58.957Z,2588
2016-11-28T12:08:14.053Z,2584
2016-11-28T12:09:30.111Z,2580
2016-11-28T12:10:44.567Z,2576
2016-11-28T12:12:01.009Z,2560
2016-11-28T12:13:16.926Z,2560
2016-11-28T12:14:30.270Z,2556
2016-11-28T12:15:45.009Z,2548
2016-11-28T12:17:01.145Z,2548
2016-11-28T12:18:14.405Z,2548
2016-11-28T12:19:30.037Z,2540
2016-11-28T12:20:43.507Z,2536
2016-11-28T12:21:58.074Z,2532
2016-11-28T12:23:14.124Z,2528
2016-11-28T12:24:30.601Z,2524
2016-11-28T12:25:45.386Z,2520
2016-11-28T12:27:01.035Z,2516
2016-11-28T12:28:14.522Z,2508
2016-11-28T12:29:30.259Z,2500
2016-11-28T12:30:43.904Z,2496
2016-11-28T12:31:58.997Z,2492
2016-11-28T12:33:13.416Z,2484
2016-11-28T12:34:29.641Z,2480
2016-11-28T12:35:44.758Z,2476
2016-11-28T12:36:58.192Z,2472
2016-11-28T12:38:14.092Z,2464
2016-11-28T12:39:28.128Z,2456
2016-11-28T12:40:42.397Z,2452
2016-11-28T12:41:58.051Z,2448
2016-11-28T12:43:12.865Z,2444
2016-11-28T12:44:29.594Z,2436
2016-11-28T12:45:44.688Z,2436
2016-11-28T12:47:00.295Z,2432
2016-11-28T12:48:16.193Z,2424
2016-11-28T12:49:32.654Z,2420
2016-11-28T12:50:47.384Z,2412
2016-11-28T12:51:59.257Z,2408
2016-11-28T12:53:15.941Z,2408
2016-11-28T12:54:30.945Z,2400
2016-11-28T12:55:45.496Z,2392
2016-11-28T12:57:01.947Z,2384
2016-11-28T12:58:17.103Z,2384
2016-11-28T12:59:33.406Z,2376
2016-11-28T13:00:48.635Z,2372
2016-11-28T13:02:02.470Z,2364
2016-11-28T13:03:12.789Z,2360
2016-11-28T13:04:29.199Z,2356
2016-11-28T13:05:44.490Z,2352
2016-11-28T13:06:56.497Z,2344
2016-11-28T13:08:11.594Z,2336
2016-11-28T13:09:25.163Z,2332
2016-11-28T13:10:40.463Z,2320
2016-11-28T13:11:54.906Z,2316
2016-11-28T13:13:11.486Z,2308
2016-11-28T13:14:24.494Z,2304
2016-11-28T13:15:36.883Z,2296
2016-11-28T13:16:51.522Z,2288
2016-11-28T13:18:08.276Z,2280
2016-11-28T13:19:24.722Z,2280
2016-11-28T13:20:39.849Z,2268
2016-11-28T13:21:54.617Z,2264
2016-11-28T13:23:10.415Z,2252
2016-11-28T13:24:25.252Z,2244
2016-11-28T13:25:42.020Z,2240
2016-11-28T13:26:55.100Z,2232
2016-11-28T13:28:09.816Z,2224
2016-11-28T13:29:24.123Z,2212
2016-11-28T13:30:37.608Z,2204
2016-11-28T13:31:54.549Z,2200
2016-11-28T13:33:09.812Z,2192
2016-11-28T13:34:25.344Z,2184
2016-11-28T13:35:41.675Z,2172
2016-11-28T13:36:56.678Z,2164
2016-11-28T13:38:12.757Z,2156
2016-11-28T13:39:28.090Z,2148
2016-11-28T13:40:44.648Z,2136
2016-11-28T13:42:00.282Z,2128
2016-11-28T13:43:17.180Z,2116
2016-11-28T13:44:31.882Z,2112
2016-11-28T13:45:48.203Z,2104
2016-11-28T13:47:05.959Z,2088
2016-11-28T13:48:19.460Z,2080
2016-11-28T13:49:36.069Z,2068
2016-11-28T13:50:51.516Z,2060
2016-11-28T13:52:06.488Z,2048
2016-11-28T13:53:22.414Z,2040
2016-11-28T13:54:35.871Z,2028
2016-11-28T13:55:52.175Z,2016
2016-11-28T13:57:08.520Z,2000
2016-11-28T13:58:24.737Z,1992
2016-11-28T13:59:39.878Z,1980
2016-11-28T14:00:52.859Z,1968
2016-11-28T14:02:06.435Z,1956
2016-11-28T14:03:21.957Z,1944
2016-11-28T14:04:38.316Z,1932
2016-11-28T14:05:53.453Z,1916
2016-11-28T14:07:06.672Z,1904
2016-11-28T14:08:19.698Z,1888
2016-11-28T14:09:35.629Z,1876
2016-11-28T14:10:51.358Z,1860
2016-11-28T14:12:07.115Z,1848
2016-11-28T14:13:21.945Z,1832
2016-11-28T14:14:38.292Z,1812
2016-11-28T14:15:51.336Z,1796
2016-11-28T14:17:08.014Z,1784
2016-11-28T14:18:21.764Z,1768
2016-11-28T14:19:37.629Z,1748
2016-11-28T14:20:51.932Z,1728
2016-11-28T14:22:08.082Z,1708
2016-11-28T14:23:24.675Z,1692
2016-11-28T14:24:34.975Z,1672
2016-11-28T14:25:51.604Z,1656
2016-11-28T14:27:05.081Z,1636
2016-11-28T14:28:22.343Z,1612
2016-11-28T14:29:38.563Z,1596
2016-11-28T14:30:54.974Z,1572
2016-11-28T14:32:09.651Z,1548
2016-11-28T14:33:26.530Z,1528
2016-11-28T14:34:40.019Z,1504
2016-11-28T14:35:55.371Z,1480
2016-11-28T14:37:12.438Z,1460
2016-11-28T14:38:28.512Z,1432
2016-11-28T14:39:44.035Z,1404
2016-11-28T14:40:58.653Z,1380
2016-11-28T14:42:13.602Z,1352
2016-11-28T14:43:30.345Z,1324
2016-11-28T14:44:46.885Z,1296
2016-11-28T14:46:03.355Z,1268
2016-11-28T14:47:19.232Z,1240
2016-11-28T14:48:34.361Z,1208
2016-11-28T14:49:50.246Z,1180
2016-11-28T14:51:05.744Z,1148
2016-11-28T14:52:20.278Z,1116
2016-11-28T14:53:35.041Z,1084
2016-11-28T14:54:48.271Z,1048
2016-11-28T14:56:03.668Z,1020
2016-11-28T14:57:18.894Z,984
2016-11-28T14:58:35.593Z,948
2016-11-28T14:59:51.493Z,916
2016-11-28T15:01:08.258Z,880
2016-11-28T15:02:21.744Z,848
2016-11-28T15:03:38.444Z,812
2016-11-28T15:04:53.439Z,776
2016-11-28T15:06:09.544Z,736
2016-11-28T15:07:22.442Z,704
2016-11-28T15:08:35.903Z,664
2016-11-28T15:09:51.408Z,628
2016-11-28T15:11:07.997Z,592
2016-11-28T15:12:22.269Z,556
2016-11-28T15:13:37.140Z,524
2016-11-28T15:14:53.949Z,488
2016-11-28T15:16:08.699Z,452
2016-11-28T15:17:25.185Z,420
2016-11-28T15:18:41.770Z,388
2016-11-28T15:19:56.580Z,356
2016-11-28T15:21:09.759Z,328
2016-11-28T15:22:24.698Z,296
2016-11-28T15:23:40.387Z,272
2016-11-28T15:24:56.149Z,248
2016-11-28T15:26:12.554Z,220
2016-11-28T15:27:29.309Z,196
2016-11-28T15:28:46.076Z,172
2016-11-28T15:30:01.953Z,152
2016-11-28T15:31:17.856Z,136
2016-11-28T15:32:31.221Z,120
2016-11-28T15:33:46.344Z,100
2016-11-28T15:35:03.083Z,88
2016-11-28T15:36:17.779Z,72
2016-11-28T15:37:32.937Z,64
2016-11-28T15:38:49.668Z,56
2016-11-28T15:40:03.567Z,48
2016-11-28T15:41:19.588Z,40
2016-11-28T15:42:36.137Z,32
2016-11-28T15:43:49.759Z,28
2016-11-28T15:45:01.720Z,20
2016-11-28T15:46:15.280Z,20
2016-11-28T15:47:31.629Z,40
2016-11-28T15:48:46.338Z,40
2016-11-28T15:50:02.801Z,40
2016-11-28T15:51:19.384Z,36
2016-11-28T15:52:35.845Z,36
2016-11-28T15:53:52.456Z,32
2016-11-28T15:55:09.069Z,36
2016-11-28T15:56:24.562Z,32
2016-11-28T15:57:39.161Z,28
2016-11-28T15:58:52.302Z,32
2016-11-28T16:00:07.173Z,28
2016-11-28T16:01:20.627Z,28
2016-11-28T16:02:37.041Z,28
2016-11-28T16:03:50.391Z,28
2016-11-28T16:05:04.769Z,28
2016-11-28T16:06:19.944Z,32
2016-11-28T16:07:36.074Z,28
2016-11-28T16:08:52.795Z,28
2016-11-28T16:10:07.255Z,32
2016-11-28T16:11:19.992Z,28
2016-11-28T16:12:32.177Z,28
2016-11-28T16:13:48.663Z,28
2016-11-28T16:15:02.772Z,28
2016-11-28T16:16:18.179Z,28
2016-11-28T16:17:34.316Z,28
2016-11-28T16:18:49.614Z,28
2016-11-28T16:20:04.540Z,32
2016-11-28T16:21:17.751Z,32
2016-11-28T16:22:32.370Z,28
2016-11-28T16:23:48.340Z,28
2016-11-28T16:25:02.684Z,32
2016-11-28T16:26:18.902Z,28
2016-11-28T16:27:32.446Z,28
2016-11-28T16:28:46.950Z,32
2016-11-28T16:30:03.445Z,32
2016-11-28T16:31:16.632Z,28
2016-11-28T16:32:29.700Z,28
2016-11-28T16:33:46.385Z,28
2016-11-28T16:34:59.669Z,32
2016-11-28T16:36:13.353Z,28
2016-11-28T16:37:30.191Z,28
2016-11-28T16:38:45.671Z,28
2016-11-28T16:40:01.523Z,28
2016-11-28T16:41:17.006Z,32
2016-11-28T16:42:33.675Z,28
2016-11-28T16:43:48.475Z,28
2016-11-28T16:45:03.511Z,28
2016-11-28T16:46:17.982Z,28
2016-11-28T16:47:33.871Z,28
2016-11-28T16:48:47.158Z,28
2016-11-28T16:50:03.467Z,28
2016-11-28T16:51:20.393Z,28
2016-11-28T16:52:36.425Z,28
2016-11-28T16:53:51.418Z,28
2016-11-28T16:55:08.212Z,28
2016-11-28T16:56:22.586Z,28
2016-11-28T16:57:36.173Z,28
2016-11-28T16:58:50.782Z,28
2016-11-28T17:00:05.852Z,28
2016-11-28T17:01:20.934Z,28
2016-11-28T17:02:38.131Z,28
2016-11-28T17:03:51.157Z,28
2016-11-28T17:05:01.876Z,28
2016-11-28T17:06:18.379Z,28
2016-11-28T17:07:34.873Z,28
2016-11-28T17:08:50.946Z,28
2016-11-28T17:10:07.867Z,28
2016-11-28T17:11:21.491Z,28
2016-11-28T17:12:36.630Z,28
2016-11-28T17:13:52.170Z,28
2016-11-28T17:15:05.718Z,28
2016-11-28T17:16:22.333Z,28
2016-11-28T17:17:36.997Z,28
2016-11-28T17:18:52.979Z,28
2016-11-28T17:20:07.853Z,28
2016-11-28T17:21:24.372Z,28
2016-11-28T17:22:41.002Z,28
2016-11-28T17:23:54.321Z,24
2016-11-28T17:25:10.517Z,24
2016-11-28T17:26:26.566Z,28
2016-11-28T17:27:41.701Z,28
2016-11-28T17:28:54.868Z,28
2016-11-28T17:30:09.602Z,24
2016-11-28T17:31:23.294Z,28
2016-11-28T17:32:39.856Z,28
2016-11-28T17:33:56.210Z,28
2016-11-28T17:35:09.637Z,28
2016-11-28T17:36:24.572Z,28
2016-11-28T17:37:40.499Z,28
2016-11-28T17:38:56.979Z,24
2016-11-28T17:40:12.801Z,24
2016-11-28T17:41:26.400Z,28
2016-11-28T17:42:42.953Z,28
2016-11-28T17:43:59.495Z,28
2016-11-28T17:45:14.376Z,28
2016-11-28T17:46:29.561Z,28
2016-11-28T17:47:43.141Z,28
2016-11-28T17:48:58.168Z,28
2016-11-28T17:50:11.361Z,0
2016-11-28T17:51:24.930Z,0
2016-11-28T17:52:40.505Z,0
2016-11-28T17:53:55.609Z,0
2016-11-28T17:55:10.745Z,0
2016-11-28T17:56:27.444Z,0
2016-11-28T17:57:41.359Z,0
2016-11-28T17:58:55.498Z,0
2016-11-28T18:00:10.292Z,0
2016-11-28T18:01:25.311Z,0
2016-11-28T18:02:41.979Z,0
2016-11-28T18:03:56.955Z,0
2016-11-28T18:05:12.257Z,0
2016-11-28T18:06:28.146Z,0
2016-11-28T18:07:43.647Z,0
2016-11-28T18:08:59.960Z,0
2016-11-28T18:10:16.247Z,0
2016-11-28T18:11:32.795Z,0
2016-11-28T18:12:45.884Z,0
2016-11-28T18:14:01.842Z,0
2016-11-28T18:15:17.778Z,0
2016-11-28T18:16:32.643Z,0
2016-11-28T18:17:47.577Z,0
2016-11-28T18:19:02.026Z,0
2016-11-28T18:20:18.747Z,0
2016-11-28T18:21:32.944Z,0
2016-11-28T18:22:47.947Z,0
2016-11-28T18:24:02.661Z,0
2016-11-28T18:25:17.512Z,0
2016-11-28T18:26:31.958Z,0
2016-11-28T18:27:47.477Z,0
2016-11-28T18:29:02.367Z,0
2016-11-28T18:30:16.984Z,0
2016-11-28T18:31:31.022Z,0
2016-11-28T18:32:46.157Z,0
2016-11-28T18:34:00.139Z,0
2016-11-28T18:35:16.191Z,0
2016-11-28T18:36:31.846Z,0
2016-11-28T18:37:46.789Z,0
2016-11-28T18:39:01.648Z,0
2016-11-28T18:40:18.359Z,0
2016-11-28T18:41:33.180Z,0
2016-11-28T18:42:49.599Z,0
2016-11-28T18:44:06.416Z,0
2016-11-28T18:45:21.117Z,0
2016-11-28T18:46:35.742Z,0
2016-11-28T18:47:49.616Z,0
2016-11-28T18:49:06.899Z,0
2016-11-28T18:50:23.070Z,0
2016-11-28T18:51:37.584Z,0
2016-11-28T18:52:53.508Z,0
2016-11-28T18:54:06.666Z,0
2016-11-28T18:55:22.970Z,0
2016-11-28T18:56:34.533Z,0
2016-11-28T18:57:47.751Z,0
2016-11-28T18:59:04.281Z,0
2016-11-28T19:00:18.632Z,0
2016-11-28T19:01:32.194Z,0
2016-11-28T19:02:44.954Z,0
2016-11-28T19:03:58.641Z,0
2016-11-28T19:05:14.766Z,0
2016-11-28T19:06:29.660Z,0
2016-11-28T19:07:44.127Z,0
2016-11-28T19:08:59.346Z,0
2016-11-28T19:10:14.174Z,0
2016-11-28T19:11:24.632Z,0
2016-11-28T19:12:38.616Z,0
2016-11-28T19:13:53.501Z,0
2016-11-28T19:15:07.837Z,0
2016-11-28T19:16:23.579Z,0
2016-11-28T19:17:37.227Z,0
2016-11-28T19:18:54.271Z,0
2016-11-28T19:20:10.441Z,0
2016-11-28T19:21:25.293Z,0
2016-11-28T19:22:42.186Z,0
2016-11-28T19:23:54.596Z,0
2016-11-28T19:25:08.340Z,0
2016-11-28T19:26:23.451Z,0
2016-11-28T19:27:36.199Z,0
2016-11-28T19:28:49.702Z,0
2016-11-28T19:30:06.349Z,0
2016-11-28T19:31:22.094Z,0
2016-11-28T19:32:36.963Z,0
2016-11-28T19:33:52.863Z,0
2016-11-28T19:35:07.219Z,0
2016-11-28T19:36:23.771Z,0
2016-11-28T19:37:39.510Z,0
2016-11-28T19:38:53.795Z,0
2016-11-28T19:40:08.934Z,0
2016-11-28T19:41:23.615Z,0
2016-11-28T19:42:37.499Z,0
2016-11-28T19:43:50.909Z,0
2016-11-28T19:45:05.465Z,0
2016-11-28T19:46:20.326Z,0
2016-11-28T19:47:34.955Z,0
2016-11-28T19:48:51.354Z,0
2016-11-28T19:50:05.623Z,0
2016-11-28T19:51:20.088Z,0
2016-11-28T19:52:35.702Z,0
2016-11-28T19:53:49.090Z,0
2016-11-28T19:55:04.578Z,0
2016-11-28T19:56:19.279Z,0
2016-11-28T19:57:35.516Z,0
2016-11-28T19:58:52.109Z,0
2016-11-28T20:00:08.123Z,0
2016-11-28T20:01:21.214Z,0
2016-11-28T20:02:36.116Z,0
2016-11-28T20:03:50.496Z,0
2016-11-28T20:05:07.084Z,0
2016-11-28T20:06:21.094Z,0
2016-11-28T20:07:34.326Z,0
2016-11-28T20:08:48.625Z,0
2016-11-28T20:10:03.486Z,0
2016-11-28T20:11:17.853Z,0
2016-11-28T20:12:31.477Z,0
2016-11-28T20:13:45.048Z,0
2016-11-28T20:15:00.251Z,0
2016-11-28T20:16:15.197Z,0
2016-11-28T20:17:29.822Z,0
2016-11-28T20:18:44.532Z,0
2016-11-28T20:20:00.088Z,0
2016-11-28T20:21:14.406Z,0
2016-11-28T20:22:30.450Z,0
2016-11-28T20:23:47.152Z,0
2016-11-28T20:25:02.438Z,0
2016-11-28T20:26:16.252Z,0
2016-11-28T20:27:31.223Z,0
2016-11-28T20:28:47.926Z,0
2016-11-28T20:30:03.988Z,0
2016-11-28T20:31:19.786Z,0
2016-11-28T20:32:36.048Z,0
2016-11-28T20:33:47.975Z,0
2016-11-28T20:35:03.152Z,0
2016-11-28T20:36:17.526Z,0
2016-11-28T20:37:33.986Z,0
2016-11-28T20:38:49.921Z,0
2016-11-28T20:40:06.232Z,0
2016-11-28T20:41:20.591Z,0
2016-11-28T20:42:33.679Z,0
2016-11-28T20:43:48.404Z,0
2016-11-28T20:45:01.819Z,0
2016-11-28T20:46:17.927Z,0
2016-11-28T20:47:31.386Z,0
2016-11-28T20:48:44.416Z,0
2016-11-28T20:50:00.711Z,0
2016-11-28T20:51:15.006Z,0
2016-11-28T20:52:28.201Z,0
2016-11-28T20:53:43.319Z,0
2016-11-28T20:54:59.601Z,0
2016-11-28T20:56:15.533Z,0
2016-11-28T20:57:31.880Z,0
2016-11-28T20:58:46.340Z,0
2016-11-28T21:00:02.228Z,0
2016-11-28T21:01:16.673Z,0
2016-11-28T21:02:32.033Z,0
2016-11-28T21:03:46.787Z,0
2016-11-28T21:05:03.492Z,0
2016-11-28T21:06:20.289Z,0
2016-11-28T21:07:34.757Z,0
2016-11-28T21:08:49.449Z,0
2016-11-28T21:10:04.799Z,0
2016-11-28T21:11:20.315Z,0
2016-11-28T21:12:33.511Z,0
2016-11-28T21:13:49.160Z,0
2016-11-28T21:15:05.246Z,0
2016-11-28T21:16:21.762Z,0
2016-11-28T21:17:37.852Z,0
2016-11-28T21:18:54.054Z,0
2016-11-28T21:20:10.748Z,0
2016-11-28T21:21:25.257Z,0
2016-11-28T21:22:40.170Z,0
2016-11-28T21:23:55.122Z,0
2016-11-28T21:25:12.297Z,0
2016-11-28T21:26:29.144Z,0
2016-11-28T21:27:41.413Z,0
2016-11-28T21:28:53.294Z,0
2016-11-28T21:30:08.166Z,0
2016-11-28T21:31:21.266Z,0
2016-11-28T21:32:36.293Z,0
2016-11-28T21:33:49.914Z,0
2016-11-28T21:35:06.663Z,0
2016-11-28T21:36:22.736Z,0
2016-11-28T21:37:38.877Z,0
2016-11-28T21:38:54.324Z,0
2016-11-28T21:40:10.838Z,0
2016-11-28T21:41:27.654Z,0
2016-11-28T21:42:42.336Z,0
2016-11-28T21:43:54.584Z,0
2016-11-28T21:45:10.675Z,0
2016-11-28T21:46:25.719Z,0
2016-11-28T21:47:40.005Z,0
2016-11-28T21:48:54.612Z,0
2016-11-28T21:50:10.545Z,0
2016-11-28T21:51:24.994Z,0
2016-11-28T21:52:39.686Z,0
2016-11-28T21:53:54.854Z,0
2016-11-28T21:55:07.867Z,0
2016-11-28T21:56:24.710Z,0
2016-11-28T21:57:39.391Z,0
2016-11-28T21:58:54.597Z,0
2016-11-28T22:00:10.578Z,0
2016-11-28T22:01:22.532Z,0
2016-11-28T22:02:37.824Z,0
2016-11-28T22:03:52.848Z,0
2016-11-28T22:05:07.729Z,0
2016-11-28T22:06:23.729Z,0
2016-11-28T22:07:40.301Z,0
2016-11-28T22:08:56.347Z,0
2016-11-28T22:10:11.488Z,0
2016-11-28T22:11:25.554Z,0
2016-11-28T22:12:40.293Z,0
2016-11-28T22:13:54.175Z,0
2016-11-28T22:15:09.312Z,0
2016-11-28T22:16:25.657Z,0
2016-11-28T22:17:39.172Z,0
2016-11-28T22:18:51.295Z,0
2016-11-28T22:20:06.842Z,0
2016-11-28T22:21:21.586Z,0
2016-11-28T22:22:36.465Z,0
2016-11-28T22:23:51.219Z,0
2016-11-28T22:25:07.718Z,0
2016-11-28T22:26:22.975Z,0
2016-11-28T22:27:39.401Z,0
2016-11-28T22:28:54.923Z,0
2016-11-28T22:30:09.454Z,0
2016-11-28T22:31:24.810Z,0
2016-11-28T22:32:38.245Z,0
2016-11-28T22:33:54.695Z,0
2016-11-28T22:35:09.945Z,0
2016-11-28T22:36:26.486Z,0
2016-11-28T22:37:38.570Z,0
2016-11-28T22:38:53.429Z,0
2016-11-28T22:40:08.752Z,0
2016-11-28T22:41:22.777Z,0
2016-11-28T22:42:36.746Z,0
2016-11-28T22:43:50.523Z,0
2016-11-28T22:45:04.005Z,0
2016-11-28T22:46:19.072Z,0
2016-11-28T22:47:34.112Z,0
2016-11-28T22:48:47.468Z,0
2016-11-28T22:49:59.670Z,0
2016-11-28T22:51:13.004Z,0
2016-11-28T22:52:29.100Z,0
2016-11-28T22:53:44.059Z,32
2016-11-28T22:55:00.089Z,28
2016-11-28T22:56:14.530Z,28
2016-11-28T22:57:29.617Z,28
2016-11-28T22:58:46.005Z,32
2016-11-28T22:59:59.208Z,32
2016-11-28T23:01:13.544Z,32
2016-11-28T23:02:28.214Z,32
2016-11-28T23:03:44.604Z,32
2016-11-28T23:04:59.429Z,28
2016-11-28T23:06:14.070Z,32
2016-11-28T23:07:27.805Z,28
2016-11-28T23:08:42.742Z,32
2016-11-28T23:09:56.155Z,32
2016-11-28T23:11:13.182Z,32
2016-11-28T23:12:28.715Z,0
2016-11-28T23:13:43.555Z,0
2016-11-28T23:14:58.812Z,0
2016-11-28T23:16:13.987Z,0
2016-11-28T23:17:29.758Z,0
2016-11-28T23:18:46.712Z,0
2016-11-28T23:20:01.416Z,0
2016-11-28T23:21:15.085Z,0
2016-11-28T23:22:32.258Z,0
2016-11-28T23:23:48.734Z,0
2016-11-28T23:25:03.563Z,0
2016-11-28T23:26:17.758Z,0
2016-11-28T23:27:33.967Z,0
2016-11-28T23:28:50.204Z,0
2016-11-28T23:30:04.274Z,0
2016-11-28T23:31:18.702Z,0
2016-11-28T23:32:35.830Z,0
2016-11-28T23:33:50.522Z,0
2016-11-28T23:35:04.778Z,0
2016-11-28T23:36:20.774Z,0
2016-11-28T23:37:34.240Z,0
2016-11-28T23:38:47.788Z,0
2016-11-28T23:40:02.461Z,0
2016-11-28T23:41:16.723Z,0
2016-11-28T23:42:31.835Z,0
2016-11-28T23:43:47.064Z,0
2016-11-28T23:45:02.665Z,0
2016-11-28T23:46:17.548Z,0
2016-11-28T23:47:32.398Z,0
2016-11-28T23:48:47.029Z,0
2016-11-28T23:50:00.077Z,0
2016-11-28T23:51:16.048Z,0
2016-11-28T23:52:31.935Z,0
2016-11-28T23:53:46.534Z,0
2016-11-28T23:55:03.476Z,0
2016-11-28T23:56:15.404Z,0
2016-11-28T23:57:30.921Z,0
2016-11-28T23:58:46.323Z,0
